createdAt,value
2022-10-30T00:01:04.065Z,100.00
2022-10-30T00:03:31.603Z,100.00
2022-10-30T00:05:58.541Z,100.00
2022-10-30T00:08:26.052Z,100.00
2022-10-30T00:10:53.562Z,100.00
2022-10-30T00:13:20.930Z,100.00
2022-10-30T00:15:53.041Z,100.00
2022-10-30T00:18:20.647Z,100.00
2022-10-30T00:20:48.060Z,100.00
2022-10-30T00:23:15.926Z,100.00
2022-10-30T00:25:43.000Z,100.00
2022-10-30T00:28:09.871Z,100.00
2022-10-30T00:30:37.803Z,100.00
2022-10-30T00:33:04.861Z,100.00
2022-10-30T00:35:32.185Z,100.00
2022-10-30T00:38:00.984Z,100.00
2022-10-30T00:40:28.894Z,100.00
2022-10-30T00:42:55.828Z,100.00
2022-10-30T00:45:22.811Z,100.00
2022-10-30T00:48:02.379Z,100.00
2022-10-30T00:50:35.420Z,100.00
2022-10-30T00:53:09.976Z,100.00
2022-10-30T00:55:46.037Z,100.00
2022-10-30T00:58:16.861Z,100.00
2022-10-30T01:00:49.320Z,100.00
2022-10-30T01:03:16.984Z,100.00
2022-10-30T01:05:48.571Z,100.00
2022-10-30T01:08:15.744Z,100.00
2022-10-30T01:10:43.470Z,100.00
2022-10-30T01:13:11.472Z,100.00
2022-10-30T01:15:53.838Z,100.00
2022-10-30T01:18:56.294Z,100.00
2022-10-30T01:22:01.447Z,100.00
2022-10-30T01:24:59.287Z,100.00
2022-10-30T01:27:54.161Z,100.00
2022-10-30T01:30:41.903Z,100.00
2022-10-30T01:33:31.589Z,100.00
2022-10-30T01:36:19.494Z,99.97
2022-10-30T01:39:03.685Z,100.00
2022-10-30T01:41:30.617Z,99.77
2022-10-30T01:44:07.071Z,100.00
2022-10-30T01:46:51.669Z,100.00
2022-10-30T01:49:54.271Z,99.87
2022-10-30T01:52:48.764Z,99.40
2022-10-30T01:55:35.471Z,99.78
2022-10-30T01:58:13.250Z,99.90
2022-10-30T02:00:43.855Z,99.37
2022-10-30T02:03:14.335Z,98.82
2022-10-30T02:05:48.485Z,100.00
2022-10-30T02:08:18.421Z,99.66
2022-10-30T02:10:48.452Z,99.26
2022-10-30T02:13:16.329Z,98.92
2022-10-30T02:15:45.312Z,98.09
2022-10-30T02:18:12.354Z,97.49
2022-10-30T02:20:40.182Z,97.37
2022-10-30T02:23:07.771Z,97.16
2022-10-30T02:25:35.448Z,96.76
2022-10-30T02:28:02.383Z,97.14
2022-10-30T02:30:31.290Z,95.88
2022-10-30T02:33:00.856Z,93.94
2022-10-30T02:35:28.027Z,93.48
2022-10-30T02:37:55.248Z,93.48
2022-10-30T02:40:22.365Z,92.22
2022-10-30T02:42:53.802Z,92.01
2022-10-30T02:45:21.710Z,92.06
2022-10-30T02:47:49.087Z,92.11
2022-10-30T02:50:16.328Z,91.16
2022-10-30T02:52:43.349Z,92.06
2022-10-30T02:55:10.675Z,91.68
2022-10-30T02:57:39.120Z,91.04
2022-10-30T03:00:07.130Z,90.85
2022-10-30T03:02:34.338Z,90.61
2022-10-30T03:05:01.256Z,90.54
2022-10-30T03:07:30.290Z,89.94
2022-10-30T03:09:57.290Z,89.95
2022-10-30T03:12:24.192Z,89.41
2022-10-30T03:14:52.406Z,89.13
2022-10-30T03:17:19.345Z,89.29
2022-10-30T03:19:47.455Z,89.13
2022-10-30T03:22:14.353Z,89.48
2022-10-30T03:24:41.307Z,89.59
2022-10-30T03:27:08.323Z,89.66
2022-10-30T03:29:35.454Z,89.73
2022-10-30T03:32:04.092Z,90.08
2022-10-30T03:34:35.844Z,89.79
2022-10-30T03:37:06.097Z,90.40
2022-10-30T03:39:33.707Z,89.69
2022-10-30T03:42:02.969Z,90.40
2022-10-30T03:44:30.367Z,90.19
2022-10-30T03:46:58.411Z,89.64
2022-10-30T03:49:45.256Z,89.47
2022-10-30T03:52:16.424Z,88.88
2022-10-30T03:54:43.443Z,88.50
2022-10-30T03:57:13.078Z,88.63
2022-10-30T03:59:54.607Z,88.45
2022-10-30T04:02:48.551Z,88.98
2022-10-30T04:05:19.283Z,88.60
2022-10-30T04:07:48.223Z,88.79
2022-10-30T04:10:20.886Z,88.31
2022-10-30T04:12:51.663Z,88.10
2022-10-30T04:15:19.463Z,88.19
2022-10-30T04:17:51.435Z,88.01
2022-10-30T04:20:23.876Z,87.72
2022-10-30T04:22:57.083Z,87.81
2022-10-30T04:25:24.476Z,87.48
2022-10-30T04:27:55.654Z,86.41
2022-10-30T04:30:25.231Z,86.54
2022-10-30T04:32:57.655Z,86.34
2022-10-30T04:35:28.548Z,85.70
2022-10-30T04:38:03.887Z,85.97
2022-10-30T04:40:35.542Z,86.00
2022-10-30T04:43:06.370Z,85.76
2022-10-30T04:45:34.622Z,85.99
2022-10-30T04:48:15.320Z,86.05
2022-10-30T04:50:43.873Z,86.44
2022-10-30T04:53:17.258Z,86.34
2022-10-30T04:55:46.965Z,86.45
2022-10-30T04:58:14.930Z,86.79
2022-10-30T05:00:43.920Z,87.29
2022-10-30T05:03:20.758Z,86.94
2022-10-30T05:06:00.064Z,87.54
2022-10-30T05:08:27.615Z,87.21
2022-10-30T05:10:55.209Z,86.98
2022-10-30T05:13:22.328Z,86.99
2022-10-30T05:15:49.330Z,86.62
2022-10-30T05:18:16.382Z,86.88
2022-10-30T05:20:46.477Z,86.50
2022-10-30T05:23:13.437Z,86.14
2022-10-30T05:25:40.395Z,85.53
2022-10-30T05:28:09.867Z,84.67
2022-10-30T05:30:46.071Z,84.82
2022-10-30T05:33:29.894Z,84.84
2022-10-30T05:35:57.116Z,85.01
2022-10-30T05:38:24.081Z,84.71
2022-10-30T05:40:52.793Z,84.65
2022-10-30T05:43:20.089Z,85.38
2022-10-30T05:45:49.793Z,85.00
2022-10-30T05:48:18.228Z,84.87
2022-10-30T05:50:46.750Z,85.39
2022-10-30T05:53:24.173Z,85.13
2022-10-30T05:55:57.148Z,85.13
2022-10-30T05:58:25.884Z,84.49
2022-10-30T06:00:55.288Z,84.75
2022-10-30T06:03:36.206Z,84.36
2022-10-30T06:06:03.464Z,84.48
2022-10-30T06:08:31.119Z,83.91
2022-10-30T06:11:00.527Z,82.95
2022-10-30T06:13:34.995Z,82.17
2022-10-30T06:16:07.835Z,81.36
2022-10-30T06:18:57.699Z,80.43
2022-10-30T06:21:25.947Z,78.42
2022-10-30T06:24:13.308Z,74.27
2022-10-30T06:26:51.176Z,76.38
2022-10-30T06:29:18.843Z,75.55
2022-10-30T06:31:45.972Z,72.65
2022-10-30T06:34:13.045Z,71.74
2022-10-30T06:36:41.763Z,72.43
2022-10-30T06:39:08.763Z,72.19
2022-10-30T06:41:43.619Z,69.42
2022-10-30T06:44:23.603Z,68.57
2022-10-30T06:46:53.492Z,66.43
2022-10-30T06:49:21.010Z,66.82
2022-10-30T06:51:50.743Z,64.89
2022-10-30T06:54:18.023Z,65.12
2022-10-30T06:57:00.866Z,62.62
2022-10-30T06:59:46.067Z,58.42
2022-10-30T07:02:25.731Z,58.04
2022-10-30T07:04:56.883Z,55.48
2022-10-30T07:07:24.229Z,55.02
2022-10-30T07:09:51.338Z,52.28
2022-10-30T07:12:22.268Z,50.91
2022-10-30T07:15:11.063Z,47.46
2022-10-30T07:17:43.235Z,48.70
2022-10-30T07:20:19.906Z,46.18
2022-10-30T07:22:47.037Z,48.92
2022-10-30T07:25:14.207Z,48.89
2022-10-30T07:27:53.903Z,48.86
2022-10-30T07:30:33.926Z,48.50
2022-10-30T07:33:36.241Z,49.49
2022-10-30T07:36:26.292Z,49.16
2022-10-30T07:39:03.349Z,49.43
2022-10-30T07:41:56.623Z,49.02
2022-10-30T07:44:42.151Z,48.45
2022-10-30T07:47:19.556Z,48.94
2022-10-30T07:49:46.674Z,50.91
2022-10-30T07:52:17.359Z,50.18
2022-10-30T07:54:46.930Z,51.19
2022-10-30T07:57:49.918Z,50.38
2022-10-30T08:00:49.402Z,51.73
2022-10-30T08:03:27.647Z,52.67
2022-10-30T08:05:58.444Z,53.21
2022-10-30T08:08:36.720Z,53.89
2022-10-30T08:11:17.285Z,54.32
2022-10-30T08:13:44.365Z,54.33
2022-10-30T08:16:12.963Z,55.28
2022-10-30T08:18:42.632Z,54.72
2022-10-30T08:21:10.966Z,55.00
2022-10-30T08:23:45.456Z,54.96
2022-10-30T08:26:15.270Z,55.49
2022-10-30T08:28:42.179Z,55.27
2022-10-30T08:31:11.152Z,55.29
2022-10-30T08:33:56.635Z,55.13
2022-10-30T08:36:49.899Z,55.28
2022-10-30T08:39:18.139Z,55.77
2022-10-30T08:41:51.164Z,56.40
2022-10-30T08:44:19.931Z,56.55
2022-10-30T08:47:05.385Z,56.52
2022-10-30T08:49:32.423Z,57.19
2022-10-30T08:52:01.956Z,56.76
2022-10-30T08:54:29.024Z,56.16
2022-10-30T08:56:55.989Z,56.64
2022-10-30T08:59:23.956Z,56.74
2022-10-30T09:01:53.285Z,56.82
2022-10-30T09:04:20.638Z,56.56
2022-10-30T09:07:03.332Z,56.80
2022-10-30T09:09:42.602Z,57.44
2022-10-30T09:12:10.565Z,57.18
2022-10-30T09:14:43.049Z,57.28
2022-10-30T09:17:11.481Z,57.07
2022-10-30T09:19:41.796Z,57.68
2022-10-30T09:22:10.262Z,58.27
2022-10-30T09:24:40.332Z,58.25
2022-10-30T09:27:25.798Z,57.52
2022-10-30T09:29:55.746Z,57.85
2022-10-30T09:32:26.842Z,58.33
2022-10-30T09:35:05.165Z,57.96
2022-10-30T09:37:38.198Z,58.33
2022-10-30T09:40:13.508Z,58.34
2022-10-30T09:42:48.532Z,58.50
2022-10-30T09:45:31.060Z,58.21
2022-10-30T09:48:25.014Z,58.04
2022-10-30T09:51:49.423Z,58.71
2022-10-30T09:54:40.600Z,58.57
2022-10-30T09:57:10.383Z,59.20
2022-10-30T10:00:00.421Z,59.06
2022-10-30T10:02:52.297Z,59.56
2022-10-30T10:05:25.055Z,59.41
2022-10-30T10:08:40.737Z,58.93
2022-10-30T10:11:31.473Z,58.38
2022-10-30T10:14:02.191Z,54.44
2022-10-30T10:16:36.759Z,52.97
2022-10-30T10:19:36.174Z,51.61
2022-10-30T10:22:06.360Z,52.26
2022-10-30T10:24:42.545Z,50.32
2022-10-30T10:27:13.174Z,50.54
2022-10-30T10:29:49.222Z,50.14
2022-10-30T10:32:28.870Z,48.14
2022-10-30T10:35:23.782Z,48.05
2022-10-30T10:38:05.656Z,48.83
2022-10-30T10:40:58.146Z,47.71
2022-10-30T10:43:57.409Z,48.54
2022-10-30T10:46:33.151Z,47.64
2022-10-30T10:49:32.400Z,48.84
2022-10-30T10:52:09.353Z,48.71
2022-10-30T10:54:46.066Z,48.38
2022-10-30T10:57:17.279Z,49.58
2022-10-30T10:59:49.062Z,50.32
2022-10-30T11:02:35.404Z,52.81
2022-10-30T11:05:14.263Z,56.87
2022-10-30T11:07:47.936Z,61.25
2022-10-30T11:10:18.576Z,64.35
2022-10-30T11:12:45.872Z,64.35
2022-10-30T11:15:28.536Z,71.44
2022-10-30T11:20:44.445Z,76.38
2022-10-30T11:23:31.020Z,77.67
2022-10-30T11:25:58.044Z,76.97
2022-10-30T11:28:36.855Z,77.12
2022-10-30T11:31:24.583Z,77.91
2022-10-30T11:33:52.009Z,78.00
2022-10-30T11:36:23.118Z,77.46
2022-10-30T11:38:50.563Z,77.67
2022-10-30T11:41:18.531Z,77.53
2022-10-30T11:43:47.075Z,76.84
2022-10-30T11:46:22.549Z,75.46
2022-10-30T11:48:55.228Z,74.15
2022-10-30T11:51:35.224Z,73.05
2022-10-30T11:54:03.025Z,72.68
2022-10-30T11:56:31.746Z,70.79
2022-10-30T11:59:01.401Z,70.56
2022-10-30T12:01:39.394Z,68.62
2022-10-30T12:04:27.693Z,68.17
2022-10-30T12:07:18.210Z,68.22
2022-10-30T12:09:47.258Z,68.43
2022-10-30T12:12:24.714Z,67.96
2022-10-30T12:14:53.301Z,68.35
2022-10-30T12:17:21.943Z,68.37
2022-10-30T12:19:53.304Z,68.51
2022-10-30T12:22:36.125Z,67.82
2022-10-30T12:25:08.324Z,68.11
2022-10-30T12:27:38.640Z,66.40
2022-10-30T12:30:16.238Z,67.00
2022-10-30T12:32:59.095Z,66.86
2022-10-30T12:35:44.819Z,65.68
2022-10-30T12:38:35.712Z,66.08
2022-10-30T12:41:12.803Z,68.66
2022-10-30T12:43:42.849Z,69.48
2022-10-30T12:46:26.230Z,70.43
2022-10-30T12:49:22.409Z,71.64
2022-10-30T12:52:01.254Z,73.62
2022-10-30T12:54:51.243Z,75.98
2022-10-30T12:57:23.678Z,76.02
2022-10-30T13:00:07.489Z,76.35
2022-10-30T13:02:53.003Z,77.32
2022-10-30T13:05:24.576Z,77.84
2022-10-30T13:08:20.920Z,81.50
2022-10-30T13:10:54.923Z,82.24
2022-10-30T13:13:26.228Z,82.76
2022-10-30T13:15:56.172Z,83.96
2022-10-30T13:18:25.378Z,85.82
2022-10-30T13:21:10.969Z,87.66
2022-10-30T13:23:37.811Z,87.83
2022-10-30T13:26:16.621Z,88.61
2022-10-30T13:29:12.632Z,90.97
2022-10-30T13:31:47.940Z,88.41
2022-10-30T13:34:27.398Z,87.99
2022-10-30T13:37:05.533Z,89.53
2022-10-30T13:39:32.378Z,87.94
2022-10-30T13:42:02.118Z,87.25
2022-10-30T13:44:39.976Z,87.15
2022-10-30T13:47:34.562Z,86.93
2022-10-30T13:50:26.251Z,86.35
2022-10-30T13:52:59.187Z,85.86
2022-10-30T13:55:29.904Z,84.27
2022-10-30T13:58:12.816Z,85.17
2022-10-30T14:01:01.164Z,83.72
2022-10-30T14:03:49.687Z,82.89
2022-10-30T14:06:25.316Z,82.55
2022-10-30T14:09:23.942Z,82.63
2022-10-30T14:11:54.369Z,83.03
2022-10-30T14:14:24.079Z,84.42
2022-10-30T14:17:09.910Z,84.17
2022-10-30T14:20:08.802Z,83.58
2022-10-30T14:22:40.611Z,83.71
2022-10-30T14:25:16.747Z,84.12
2022-10-30T14:27:43.807Z,85.19
2022-10-30T14:30:21.005Z,84.46
2022-10-30T14:32:50.207Z,84.78
2022-10-30T14:35:33.113Z,84.93
2022-10-30T14:38:09.592Z,85.32
2022-10-30T14:40:45.189Z,84.43
2022-10-30T14:43:24.382Z,85.21
2022-10-30T14:46:01.656Z,85.17
2022-10-30T14:48:33.350Z,85.84
2022-10-30T14:51:13.165Z,85.90
2022-10-30T14:54:00.156Z,85.58
2022-10-30T14:56:30.095Z,86.19
2022-10-30T14:59:09.243Z,86.01
2022-10-30T15:01:50.257Z,85.44
2022-10-30T15:04:39.847Z,85.50
2022-10-30T15:07:27.842Z,85.48
2022-10-30T15:10:16.164Z,86.29
2022-10-30T15:13:08.739Z,86.44
2022-10-30T15:15:36.384Z,86.70
2022-10-30T15:18:09.991Z,86.15
2022-10-30T15:20:38.671Z,86.69
2022-10-30T15:23:20.912Z,86.53
2022-10-30T15:25:51.140Z,86.86
2022-10-30T15:28:21.889Z,86.15
2022-10-30T15:31:01.457Z,86.52
2022-10-30T15:33:31.636Z,84.15
2022-10-30T15:36:01.931Z,83.79
2022-10-30T15:38:28.971Z,83.24
2022-10-30T15:40:59.277Z,82.99
2022-10-30T15:43:33.456Z,83.18
2022-10-30T15:46:00.588Z,82.18
2022-10-30T15:48:32.909Z,81.97
2022-10-30T15:51:04.958Z,81.22
2022-10-30T15:53:51.346Z,81.07
2022-10-30T15:57:08.188Z,80.55
2022-10-30T15:59:33.911Z,80.07
2022-10-30T16:02:01.343Z,80.36
2022-10-30T16:04:35.697Z,80.40
2022-10-30T16:07:17.399Z,80.65
2022-10-30T16:09:53.894Z,79.13
2022-10-30T16:12:21.423Z,80.14
2022-10-30T16:14:48.407Z,79.18
2022-10-30T16:17:15.584Z,79.92
2022-10-30T16:19:49.957Z,79.27
2022-10-30T16:22:26.037Z,79.54
2022-10-30T16:24:54.792Z,79.20
2022-10-30T16:27:24.455Z,78.91
2022-10-30T16:29:54.154Z,78.69
2022-10-30T16:32:25.201Z,78.71
2022-10-30T16:34:57.591Z,78.87
2022-10-30T16:37:27.803Z,79.53
2022-10-30T16:39:56.218Z,79.78
2022-10-30T16:42:26.803Z,79.89
2022-10-30T16:45:49.453Z,81.06
2022-10-30T16:48:27.787Z,80.00
2022-10-30T16:51:04.657Z,80.83
2022-10-30T16:53:32.118Z,80.90
2022-10-30T16:55:59.922Z,82.10
2022-10-30T16:58:30.424Z,81.52
2022-10-30T17:01:04.788Z,81.88
2022-10-30T17:03:38.323Z,82.42
2022-10-30T17:06:24.177Z,82.31
2022-10-30T17:08:53.640Z,82.53
2022-10-30T17:11:44.804Z,82.65
2022-10-30T17:14:19.878Z,83.00
2022-10-30T17:17:02.332Z,83.54
2022-10-30T17:19:32.349Z,83.92
2022-10-30T17:22:02.644Z,83.89
2022-10-30T17:24:35.364Z,84.24
2022-10-30T17:27:05.538Z,84.76
2022-10-30T17:29:38.541Z,84.32
2022-10-30T17:32:26.607Z,84.54
2022-10-30T17:35:02.987Z,84.59
2022-10-30T17:37:30.011Z,84.94
2022-10-30T17:39:57.045Z,85.22
2022-10-30T17:42:23.938Z,85.46
2022-10-30T17:44:50.859Z,85.62
2022-10-30T17:47:20.050Z,85.64
2022-10-30T17:49:47.266Z,85.44
2022-10-30T17:52:16.330Z,85.60
2022-10-30T17:54:44.444Z,85.56
2022-10-30T17:57:12.537Z,85.79
2022-10-30T17:59:40.475Z,85.76
2022-10-30T18:02:19.449Z,85.46
2022-10-30T18:04:47.849Z,86.01
2022-10-30T18:07:16.463Z,85.54
2022-10-30T18:09:44.862Z,85.16
2022-10-30T18:12:15.003Z,85.10
2022-10-30T18:14:43.335Z,85.20
2022-10-30T18:17:10.987Z,84.70
2022-10-30T18:19:38.083Z,84.65
2022-10-30T18:22:05.053Z,84.03
2022-10-30T18:24:31.937Z,84.53
2022-10-30T18:26:59.305Z,84.03
2022-10-30T18:29:26.310Z,84.14
2022-10-30T18:31:53.316Z,83.38
2022-10-30T18:34:21.732Z,82.70
2022-10-30T18:36:49.336Z,82.93
2022-10-30T18:39:16.604Z,81.89
2022-10-30T18:41:46.465Z,82.37
2022-10-30T18:44:17.831Z,81.70
2022-10-30T18:46:45.768Z,82.13
2022-10-30T18:49:12.760Z,81.85
2022-10-30T18:51:39.762Z,81.96
2022-10-30T18:54:16.719Z,81.13
2022-10-30T18:56:43.954Z,81.60
2022-10-30T18:59:11.007Z,81.01
2022-10-30T19:01:38.325Z,80.94
2022-10-30T19:04:11.703Z,80.70
2022-10-30T19:06:39.083Z,80.62
2022-10-30T19:09:06.382Z,80.39
2022-10-30T19:11:33.770Z,80.85
2022-10-30T19:14:01.102Z,80.78
2022-10-30T19:16:28.162Z,80.70
2022-10-30T19:18:55.133Z,80.53
2022-10-30T19:21:25.722Z,79.71
2022-10-30T19:23:54.052Z,79.99
2022-10-30T19:26:21.057Z,80.28
2022-10-30T19:28:48.037Z,79.56
2022-10-30T19:31:17.480Z,79.02
2022-10-30T19:33:44.924Z,79.21
2022-10-30T19:36:28.580Z,78.74
2022-10-30T19:38:56.046Z,78.31
2022-10-30T19:41:24.934Z,78.00
2022-10-30T19:43:53.436Z,77.46
2022-10-30T19:46:20.781Z,78.20
2022-10-30T19:49:03.106Z,77.74
2022-10-30T19:51:30.111Z,76.83
2022-10-30T19:53:57.009Z,77.63
2022-10-30T19:56:24.163Z,78.36
2022-10-30T19:58:51.100Z,78.31
2022-10-30T20:01:18.320Z,77.31
2022-10-30T20:03:45.426Z,76.37
2022-10-30T20:06:15.189Z,76.65
2022-10-30T20:08:42.069Z,77.14
2022-10-30T20:11:09.016Z,76.37
2022-10-30T20:13:37.303Z,77.34
2022-10-30T20:16:05.796Z,76.50
2022-10-30T20:18:35.047Z,76.32
2022-10-30T20:21:05.300Z,76.15
2022-10-30T20:23:32.329Z,76.15
2022-10-30T20:26:24.623Z,75.60
2022-10-30T20:28:53.034Z,75.12
2022-10-30T20:31:20.010Z,75.00
2022-10-30T20:33:46.924Z,74.48
2022-10-30T20:36:14.677Z,74.86
2022-10-30T20:38:41.712Z,75.09
2022-10-30T20:41:20.809Z,75.45
2022-10-30T20:43:50.003Z,75.35
2022-10-30T20:46:17.722Z,74.16
2022-10-30T20:48:44.672Z,74.81
2022-10-30T20:51:12.359Z,74.02
2022-10-30T20:53:39.530Z,74.49
2022-10-30T20:56:06.912Z,73.73
2022-10-30T20:58:33.840Z,74.04
2022-10-30T21:01:00.837Z,73.92
2022-10-30T21:03:28.344Z,74.68
2022-10-30T21:05:57.646Z,73.54
2022-10-30T21:08:25.714Z,74.11
2022-10-30T21:10:52.723Z,73.79
2022-10-30T21:13:19.613Z,73.04
2022-10-30T21:15:46.508Z,73.46
2022-10-30T21:18:13.475Z,73.32
2022-10-30T21:20:41.370Z,72.69
2022-10-30T21:23:09.244Z,72.63
2022-10-30T21:25:36.631Z,72.25
2022-10-30T21:28:04.831Z,71.98
2022-10-30T21:30:31.889Z,73.55
2022-10-30T21:32:59.562Z,71.84
2022-10-30T21:35:28.019Z,71.87
2022-10-30T21:37:55.013Z,72.78
2022-10-30T21:40:22.345Z,71.42
2022-10-30T21:42:49.684Z,71.24
2022-10-30T21:45:16.741Z,72.01
2022-10-30T21:47:43.932Z,72.75
2022-10-30T21:50:12.713Z,72.22
2022-10-30T21:52:40.891Z,72.61
2022-10-30T21:55:08.814Z,71.80
2022-10-30T21:57:36.545Z,71.16
2022-10-30T22:00:07.230Z,70.64
2022-10-30T22:02:35.739Z,71.20
2022-10-30T22:05:03.109Z,70.68
2022-10-30T22:07:30.367Z,70.01
2022-10-30T22:09:57.515Z,70.05
2022-10-30T22:12:24.411Z,69.98
2022-10-30T22:14:51.411Z,70.11
2022-10-30T22:17:18.342Z,70.15
2022-10-30T22:19:45.212Z,70.46
2022-10-30T22:22:12.164Z,69.95
2022-10-30T22:24:39.280Z,70.79
2022-10-30T22:27:06.653Z,70.47
2022-10-30T22:29:33.652Z,70.10
2022-10-30T22:32:01.604Z,70.91
2022-10-30T22:34:29.212Z,70.73
2022-10-30T22:36:56.093Z,70.95
2022-10-30T22:39:23.136Z,71.15
2022-10-30T22:41:50.028Z,70.62
2022-10-30T22:44:19.852Z,70.67
2022-10-30T22:46:46.774Z,71.50
2022-10-30T22:49:15.834Z,71.10
2022-10-30T22:51:43.024Z,71.16
2022-10-30T22:54:14.745Z,71.72
2022-10-30T22:56:41.934Z,71.49
2022-10-30T22:59:11.957Z,71.50
2022-10-30T23:01:40.447Z,70.60
2022-10-30T23:04:09.615Z,71.47
2022-10-30T23:06:36.774Z,71.15
2022-10-30T23:09:07.210Z,70.98
2022-10-30T23:11:34.237Z,71.67
2022-10-30T23:14:01.195Z,71.88
2022-10-30T23:16:28.398Z,71.43
2022-10-30T23:18:57.942Z,71.13
2022-10-30T23:21:27.522Z,71.62
2022-10-30T23:23:55.340Z,70.99
2022-10-30T23:26:25.017Z,71.91
2022-10-30T23:28:53.995Z,70.90
2022-10-30T23:31:27.610Z,71.16
2022-10-30T23:33:57.101Z,71.08
2022-10-30T23:36:24.339Z,70.55
2022-10-30T23:38:56.002Z,70.76
2022-10-30T23:41:25.152Z,70.63
2022-10-30T23:43:57.322Z,70.39
2022-10-30T23:46:24.492Z,70.50
2022-10-30T23:48:52.070Z,70.65
2022-10-30T23:51:19.127Z,69.94
2022-10-30T23:53:46.471Z,70.01
2022-10-30T23:56:13.876Z,70.17
2022-10-30T23:58:45.771Z,69.71
